createdAt,value
2023-03-21T00:00:22.631Z,997.65
2023-03-21T00:01:21.622Z,997.63
2023-03-21T00:02:21.653Z,997.68
2023-03-21T00:03:21.640Z,997.65
2023-03-21T00:04:21.662Z,997.63
2023-03-21T00:05:21.635Z,997.62
2023-03-21T00:06:21.574Z,997.62
2023-03-21T00:07:21.565Z,997.64
2023-03-21T00:08:21.557Z,997.66
2023-03-21T00:09:21.547Z,997.58
2023-03-21T00:10:33.090Z,997.60
2023-03-21T00:11:22.514Z,997.61
2023-03-21T00:12:21.523Z,997.59
2023-03-21T00:13:21.488Z,997.62
2023-03-21T00:14:21.485Z,997.64
2023-03-21T00:15:24.880Z,997.62
2023-03-21T00:16:36.683Z,997.61
2023-03-21T00:17:22.470Z,997.60
2023-03-21T00:18:21.448Z,997.64
2023-03-21T00:19:21.429Z,997.57
2023-03-21T00:20:21.435Z,997.59
2023-03-21T00:21:42.310Z,997.55
2023-03-21T00:22:22.411Z,997.50
2023-03-21T00:23:21.380Z,997.54
2023-03-21T00:24:21.388Z,997.50
2023-03-21T00:25:21.359Z,997.48
2023-03-21T00:26:21.352Z,997.44
2023-03-21T00:27:44.847Z,997.46
2023-03-21T00:28:22.339Z,997.50
2023-03-21T00:29:21.327Z,997.44
2023-03-21T00:30:21.324Z,997.43
2023-03-21T00:31:21.300Z,997.39
2023-03-21T00:32:21.306Z,997.44
2023-03-21T00:33:22.804Z,997.42
2023-03-21T00:34:31.733Z,997.43
2023-03-21T00:35:53.559Z,997.36
2023-03-21T00:36:22.275Z,997.40
2023-03-21T00:37:21.242Z,997.39
2023-03-21T00:38:21.233Z,997.40
2023-03-21T00:39:21.214Z,997.39
2023-03-21T00:40:27.884Z,997.39
2023-03-21T00:41:40.713Z,997.40
2023-03-21T00:42:22.198Z,997.43
2023-03-21T00:43:21.172Z,997.35
2023-03-21T00:44:21.166Z,997.37
2023-03-21T00:45:21.149Z,997.41
2023-03-21T00:46:23.265Z,997.34
2023-03-21T00:47:21.177Z,997.28
2023-03-21T00:48:21.178Z,997.25
2023-03-21T00:49:21.105Z,997.26
2023-03-21T00:50:21.132Z,997.28
2023-03-21T00:51:21.090Z,997.24
2023-03-21T00:52:34.254Z,997.29
2023-03-21T00:53:22.072Z,997.21
2023-03-21T00:54:21.063Z,997.22
2023-03-21T00:55:21.061Z,997.27
2023-03-21T00:56:21.039Z,997.25
2023-03-21T00:57:29.355Z,997.24
2023-03-21T00:58:22.045Z,997.32
2023-03-21T00:59:21.016Z,997.27
2023-03-21T01:00:20.998Z,997.26
2023-03-21T01:01:20.991Z,997.29
2023-03-21T01:02:21.039Z,997.22
2023-03-21T01:03:25.299Z,997.23
2023-03-21T01:04:20.954Z,997.23
2023-03-21T01:05:20.936Z,997.24
2023-03-21T01:06:20.932Z,997.17
2023-03-21T01:07:20.924Z,997.20
2023-03-21T01:08:27.929Z,997.24
2023-03-21T01:09:21.892Z,997.24
2023-03-21T01:10:20.898Z,997.16
2023-03-21T01:11:20.873Z,997.21
2023-03-21T01:12:20.897Z,997.22
2023-03-21T01:13:20.856Z,997.17
2023-03-21T01:14:23.533Z,997.24
2023-03-21T01:15:20.835Z,997.16
2023-03-21T01:16:20.857Z,997.20
2023-03-21T01:17:20.835Z,997.30
2023-03-21T01:18:20.806Z,997.26
2023-03-21T01:19:27.582Z,997.19
2023-03-21T01:20:21.785Z,997.17
2023-03-21T01:21:20.835Z,997.18
2023-03-21T01:22:20.776Z,997.15
2023-03-21T01:23:20.748Z,997.14
2023-03-21T01:24:20.741Z,997.19
2023-03-21T01:25:22.685Z,997.20
2023-03-21T01:26:20.719Z,997.15
2023-03-21T01:27:20.721Z,997.16
2023-03-21T01:28:20.698Z,997.12
2023-03-21T01:29:20.679Z,997.19
2023-03-21T01:30:24.043Z,997.19
2023-03-21T01:31:20.715Z,997.21
2023-03-21T01:32:20.674Z,997.22
2023-03-21T01:33:20.639Z,997.16
2023-03-21T01:34:20.631Z,997.17
2023-03-21T01:35:20.623Z,997.15
2023-03-21T01:36:23.203Z,997.19
2023-03-21T01:37:20.620Z,997.23
2023-03-21T01:38:20.601Z,997.17
2023-03-21T01:39:20.587Z,997.18
2023-03-21T01:40:20.573Z,997.16
2023-03-21T01:41:20.553Z,997.17
2023-03-21T01:42:20.563Z,997.16
2023-03-21T01:43:20.533Z,997.17
2023-03-21T01:44:20.543Z,997.11
2023-03-21T01:45:20.519Z,997.15
2023-03-21T01:46:20.538Z,997.10
2023-03-21T01:47:20.514Z,997.07
2023-03-21T01:48:20.500Z,997.06
2023-03-21T01:49:20.466Z,997.09
2023-03-21T01:50:20.464Z,997.12
2023-03-21T01:51:20.453Z,997.05
2023-03-21T01:52:35.407Z,996.99
2023-03-21T01:53:21.427Z,997.01
2023-03-21T01:54:20.418Z,997.01
2023-03-21T01:55:20.409Z,996.98
2023-03-21T01:56:20.404Z,996.98
2023-03-21T01:57:20.982Z,996.92
2023-03-21T01:58:20.414Z,997.01
2023-03-21T01:59:20.369Z,996.95
2023-03-21T02:00:20.356Z,996.90
2023-03-21T02:01:20.397Z,996.97
2023-03-21T02:02:20.359Z,996.97
2023-03-21T02:03:33.312Z,996.94
2023-03-21T02:04:21.362Z,996.95
2023-03-21T02:05:20.311Z,996.99
2023-03-21T02:06:20.292Z,996.97
2023-03-21T02:07:20.299Z,996.96
2023-03-21T02:08:22.265Z,996.99
2023-03-21T02:09:20.269Z,996.97
2023-03-21T02:10:20.247Z,996.89
2023-03-21T02:11:20.242Z,996.82
2023-03-21T02:12:20.259Z,996.87
2023-03-21T02:13:20.233Z,996.83
2023-03-21T02:14:28.674Z,996.87
2023-03-21T02:15:21.194Z,996.85
2023-03-21T02:16:20.266Z,996.84
2023-03-21T02:17:20.204Z,996.84
2023-03-21T02:18:20.167Z,996.78
2023-03-21T02:19:29.590Z,996.85
2023-03-21T02:20:21.145Z,996.80
2023-03-21T02:21:20.136Z,996.73
2023-03-21T02:22:20.139Z,996.76
2023-03-21T02:23:20.113Z,996.70
2023-03-21T02:24:20.098Z,996.78
2023-03-21T02:25:22.131Z,996.73
2023-03-21T02:26:20.082Z,996.73
2023-03-21T02:27:20.088Z,996.73
2023-03-21T02:28:20.087Z,996.61
2023-03-21T02:29:20.057Z,996.64
2023-03-21T02:30:28.174Z,996.64
2023-03-21T02:31:21.087Z,996.60
2023-03-21T02:32:31.438Z,996.55
2023-03-21T02:33:21.011Z,996.58
2023-03-21T02:34:20.002Z,996.63
2023-03-21T02:35:19.996Z,996.57
2023-03-21T02:36:20.007Z,996.57
2023-03-21T02:37:23.571Z,996.59
2023-03-21T02:38:20.951Z,996.57
2023-03-21T02:39:19.947Z,996.65
2023-03-21T02:40:19.922Z,996.60
2023-03-21T02:41:20.145Z,996.62
2023-03-21T02:42:19.926Z,996.62
2023-03-21T02:43:23.436Z,996.53
2023-03-21T02:44:19.893Z,996.64
2023-03-21T02:45:19.885Z,996.58
2023-03-21T02:46:20.651Z,996.64
2023-03-21T02:47:19.886Z,996.59
2023-03-21T02:48:29.141Z,996.61
2023-03-21T02:49:20.847Z,996.64
2023-03-21T02:50:19.833Z,996.67
2023-03-21T02:51:19.820Z,996.68
2023-03-21T02:52:35.574Z,996.63
2023-03-21T02:53:20.797Z,996.68
2023-03-21T02:54:32.550Z,996.70
2023-03-21T02:55:20.776Z,996.61
2023-03-21T02:56:19.760Z,996.67
2023-03-21T02:57:19.762Z,996.64
2023-03-21T02:58:19.752Z,996.65
2023-03-21T02:59:19.740Z,996.63
2023-03-21T03:00:19.741Z,996.64
2023-03-21T03:01:19.766Z,996.65
2023-03-21T03:02:19.708Z,996.66
2023-03-21T03:03:33.101Z,996.62
2023-03-21T03:04:20.716Z,996.63
2023-03-21T03:05:21.760Z,996.66
2023-03-21T03:06:19.673Z,996.67
2023-03-21T03:07:19.660Z,996.63
2023-03-21T03:08:24.060Z,996.66
2023-03-21T03:09:20.627Z,996.70
2023-03-21T03:10:19.617Z,996.68
2023-03-21T03:11:19.608Z,996.68
2023-03-21T03:12:19.597Z,996.68
2023-03-21T03:13:19.608Z,996.60
2023-03-21T03:15:20.569Z,996.64
2023-03-21T03:16:19.550Z,996.62
2023-03-21T03:17:19.550Z,996.64
2023-03-21T03:18:19.560Z,996.58
2023-03-21T03:19:19.538Z,996.55
2023-03-21T03:20:19.521Z,996.57
2023-03-21T03:21:19.501Z,996.61
2023-03-21T03:22:19.491Z,996.59
2023-03-21T03:23:19.493Z,996.57
2023-03-21T03:24:19.472Z,996.61
2023-03-21T03:25:27.105Z,996.58
2023-03-21T03:26:20.443Z,996.55
2023-03-21T03:27:19.442Z,996.52
2023-03-21T03:28:19.443Z,996.58
2023-03-21T03:29:19.424Z,996.55
2023-03-21T03:30:19.410Z,996.52
2023-03-21T03:31:20.925Z,996.59
2023-03-21T03:32:19.382Z,996.48
2023-03-21T03:33:19.393Z,996.51
2023-03-21T03:34:19.363Z,996.52
2023-03-21T03:35:19.359Z,996.46
2023-03-21T03:36:30.912Z,996.47
2023-03-21T03:37:20.343Z,996.48
2023-03-21T03:38:19.347Z,996.48
2023-03-21T03:39:19.311Z,996.40
2023-03-21T03:40:19.294Z,996.41
2023-03-21T03:41:19.706Z,996.45
2023-03-21T03:42:28.014Z,996.38
2023-03-21T03:43:20.285Z,996.44
2023-03-21T03:44:19.257Z,996.43
2023-03-21T03:45:19.247Z,996.36
2023-03-21T03:46:19.290Z,996.37
2023-03-21T03:47:31.959Z,996.40
2023-03-21T03:48:20.249Z,996.40
2023-03-21T03:49:19.207Z,996.42
2023-03-21T03:50:19.210Z,996.37
2023-03-21T03:51:19.187Z,996.38
2023-03-21T03:52:19.178Z,996.38
2023-03-21T03:53:19.183Z,996.37
2023-03-21T03:54:19.151Z,996.41
2023-03-21T03:55:19.149Z,996.38
2023-03-21T03:56:19.134Z,996.38
2023-03-21T03:57:19.131Z,996.43
2023-03-21T03:58:23.630Z,996.38
2023-03-21T03:59:20.101Z,996.39
2023-03-21T04:00:19.082Z,996.37
2023-03-21T04:01:19.081Z,996.41
2023-03-21T04:02:19.108Z,996.37
2023-03-21T04:03:19.127Z,996.41
2023-03-21T04:04:19.058Z,996.27
2023-03-21T04:05:19.043Z,996.38
2023-03-21T04:06:19.022Z,996.40
2023-03-21T04:07:19.019Z,996.41
2023-03-21T04:08:19.016Z,996.40
2023-03-21T04:09:23.353Z,996.38
2023-03-21T04:10:19.983Z,996.40
2023-03-21T04:11:18.980Z,996.40
2023-03-21T04:12:18.966Z,996.38
2023-03-21T04:13:18.988Z,996.42
2023-03-21T04:14:18.940Z,996.35
2023-03-21T04:15:18.937Z,996.38
2023-03-21T04:16:19.048Z,996.37
2023-03-21T04:17:18.914Z,996.38
2023-03-21T04:18:18.922Z,996.37
2023-03-21T04:19:18.892Z,996.31
2023-03-21T04:20:33.895Z,996.30
2023-03-21T04:21:19.879Z,996.35
2023-03-21T04:22:18.853Z,996.33
2023-03-21T04:23:18.890Z,996.33
2023-03-21T04:24:18.846Z,996.43
2023-03-21T04:25:30.696Z,996.36
2023-03-21T04:26:19.841Z,996.44
2023-03-21T04:27:18.805Z,996.34
2023-03-21T04:28:18.806Z,996.32
2023-03-21T04:29:18.786Z,996.33
2023-03-21T04:30:18.773Z,996.37
2023-03-21T04:31:25.481Z,996.37
2023-03-21T04:32:19.880Z,996.39
2023-03-21T04:33:18.766Z,996.34
2023-03-21T04:34:18.736Z,996.33
2023-03-21T04:35:18.729Z,996.30
2023-03-21T04:36:18.708Z,996.31
2023-03-21T04:37:18.698Z,996.31
2023-03-21T04:38:18.698Z,996.31
2023-03-21T04:39:18.683Z,996.32
2023-03-21T04:40:18.667Z,996.31
2023-03-21T04:41:18.659Z,996.29
2023-03-21T04:42:18.657Z,996.28
2023-03-21T04:43:18.659Z,996.26
2023-03-21T04:44:18.641Z,996.24
2023-03-21T04:45:18.628Z,996.26
2023-03-21T04:46:18.601Z,996.28
2023-03-21T04:47:18.599Z,996.18
2023-03-21T04:48:18.638Z,996.25
2023-03-21T04:49:18.592Z,996.22
2023-03-21T04:50:18.573Z,996.29
2023-03-21T04:51:18.552Z,996.21
2023-03-21T04:52:18.539Z,996.24
2023-03-21T04:53:18.563Z,996.24
2023-03-21T04:54:20.332Z,996.18
2023-03-21T04:55:18.512Z,996.24
2023-03-21T04:56:18.501Z,996.24
2023-03-21T04:57:18.482Z,996.24
2023-03-21T04:58:18.493Z,996.27
2023-03-21T04:59:18.461Z,996.28
2023-03-21T05:00:18.451Z,996.19
2023-03-21T05:01:18.509Z,996.25
2023-03-21T05:02:18.432Z,996.19
2023-03-21T05:03:18.449Z,996.22
2023-03-21T05:04:18.452Z,996.22
2023-03-21T05:05:18.415Z,996.20
2023-03-21T05:06:18.398Z,996.20
2023-03-21T05:07:18.400Z,996.21
2023-03-21T05:08:18.371Z,996.19
2023-03-21T05:09:18.382Z,996.17
2023-03-21T05:10:18.376Z,996.23
2023-03-21T05:11:18.336Z,996.22
2023-03-21T05:12:18.324Z,996.16
2023-03-21T05:13:18.308Z,996.24
2023-03-21T05:14:18.317Z,996.21
2023-03-21T05:15:18.300Z,996.24
2023-03-21T05:16:18.307Z,996.24
2023-03-21T05:17:18.298Z,996.24
2023-03-21T05:18:18.267Z,996.21
2023-03-21T05:19:18.287Z,996.22
2023-03-21T05:20:18.247Z,996.21
2023-03-21T05:21:18.239Z,996.24
2023-03-21T05:22:18.218Z,996.23
2023-03-21T05:23:18.206Z,996.22
2023-03-21T05:24:18.212Z,996.19
2023-03-21T05:25:18.199Z,996.21
2023-03-21T05:26:18.180Z,996.22
2023-03-21T05:27:18.171Z,996.27
2023-03-21T05:28:18.205Z,996.22
2023-03-21T05:29:18.153Z,996.28
2023-03-21T05:30:18.097Z,996.24
2023-03-21T05:31:18.134Z,996.25
2023-03-21T05:32:18.062Z,996.19
2023-03-21T05:33:18.043Z,996.15
2023-03-21T05:34:18.112Z,996.24
2023-03-21T05:35:18.078Z,996.22
2023-03-21T05:36:18.102Z,996.24
2023-03-21T05:37:18.152Z,996.22
2023-03-21T05:38:18.979Z,996.18
2023-03-21T05:39:18.056Z,996.23
2023-03-21T05:40:18.001Z,996.24
2023-03-21T05:41:19.290Z,996.24
2023-03-21T05:42:17.968Z,996.20
2023-03-21T05:43:17.937Z,996.24
2023-03-21T05:44:17.995Z,996.24
2023-03-21T05:45:17.987Z,996.26
2023-03-21T05:46:18.048Z,996.25
2023-03-21T05:47:17.920Z,996.23
2023-03-21T05:48:17.986Z,996.22
2023-03-21T05:49:17.886Z,996.29
2023-03-21T05:50:17.872Z,996.22
2023-03-21T05:51:17.855Z,996.22
2023-03-21T05:52:17.857Z,996.26
2023-03-21T05:53:17.827Z,996.24
2023-03-21T05:54:17.840Z,996.20
2023-03-21T05:55:17.810Z,996.26
2023-03-21T05:56:17.821Z,996.29
2023-03-21T05:57:17.793Z,996.26
2023-03-21T05:58:17.869Z,996.26
2023-03-21T05:59:17.784Z,996.27
2023-03-21T06:00:17.763Z,996.29
2023-03-21T06:01:17.751Z,996.28
2023-03-21T06:02:17.778Z,996.24
2023-03-21T06:03:17.794Z,996.28
2023-03-21T06:04:17.812Z,996.26
2023-03-21T06:05:17.714Z,996.25
2023-03-21T06:06:17.704Z,996.25
2023-03-21T06:07:17.686Z,996.24
2023-03-21T06:08:17.684Z,996.21
2023-03-21T06:09:17.676Z,996.26
2023-03-21T06:10:17.666Z,996.23
2023-03-21T06:11:17.645Z,996.22
2023-03-21T06:12:17.636Z,996.24
2023-03-21T06:13:17.629Z,996.21
2023-03-21T06:14:17.630Z,996.28
2023-03-21T06:15:17.622Z,996.21
2023-03-21T06:16:17.701Z,996.25
2023-03-21T06:17:17.595Z,996.20
2023-03-21T06:18:17.586Z,996.24
2023-03-21T06:19:17.580Z,996.24
2023-03-21T06:20:17.567Z,996.28
2023-03-21T06:21:17.558Z,996.25
2023-03-21T06:22:17.564Z,996.28
2023-03-21T06:23:17.528Z,996.25
2023-03-21T06:24:17.523Z,996.30
2023-03-21T06:25:17.501Z,996.26
2023-03-21T06:26:17.493Z,996.31
2023-03-21T06:27:17.482Z,996.27
2023-03-21T06:28:17.482Z,996.32
2023-03-21T06:29:17.480Z,996.25
2023-03-21T06:30:17.458Z,996.29
2023-03-21T06:31:17.534Z,996.24
2023-03-21T06:32:17.424Z,996.27
2023-03-21T06:33:17.425Z,996.29
2023-03-21T06:34:17.425Z,996.28
2023-03-21T06:35:17.402Z,996.28
2023-03-21T06:36:17.387Z,996.24
2023-03-21T06:37:17.376Z,996.29
2023-03-21T06:38:17.368Z,996.28
2023-03-21T06:39:17.368Z,996.23
2023-03-21T06:40:17.345Z,996.27
2023-03-21T06:41:17.334Z,996.28
2023-03-21T06:42:17.327Z,996.25
2023-03-21T06:43:17.315Z,996.26
2023-03-21T06:44:17.319Z,996.34
2023-03-21T06:45:17.287Z,996.31
2023-03-21T06:46:17.405Z,996.31
2023-03-21T06:47:17.271Z,996.33
2023-03-21T06:48:17.276Z,996.38
2023-03-21T06:49:17.265Z,996.39
2023-03-21T06:50:17.231Z,996.36
2023-03-21T06:51:17.232Z,996.37
2023-03-21T06:52:17.209Z,996.41
2023-03-21T06:53:17.212Z,996.41
2023-03-21T06:54:17.210Z,996.38
2023-03-21T06:55:17.182Z,996.43
2023-03-21T06:56:17.169Z,996.37
2023-03-21T06:57:17.170Z,996.45
2023-03-21T06:58:17.153Z,996.47
2023-03-21T06:59:17.166Z,996.40
2023-03-21T07:00:17.129Z,996.41
2023-03-21T07:01:17.277Z,996.40
2023-03-21T07:02:17.144Z,996.37
2023-03-21T07:03:17.108Z,996.39
2023-03-21T07:04:17.103Z,996.39
2023-03-21T07:05:17.086Z,996.44
2023-03-21T07:06:17.069Z,996.40
2023-03-21T07:07:17.062Z,996.44
2023-03-21T07:08:17.045Z,996.45
2023-03-21T07:09:17.056Z,996.34
2023-03-21T07:10:17.019Z,996.41
2023-03-21T07:11:17.019Z,996.37
2023-03-21T07:12:17.012Z,996.38
2023-03-21T07:13:16.997Z,996.35
2023-03-21T07:14:17.000Z,996.39
2023-03-21T07:15:16.983Z,996.36
2023-03-21T07:16:16.986Z,996.42
2023-03-21T07:17:16.953Z,996.32
2023-03-21T07:18:16.941Z,996.39
2023-03-21T07:19:16.968Z,996.34
2023-03-21T07:20:16.953Z,996.27
2023-03-21T07:21:16.916Z,996.32
2023-03-21T07:22:16.899Z,996.25
2023-03-21T07:23:16.895Z,996.21
2023-03-21T07:24:16.900Z,996.28
2023-03-21T07:25:16.880Z,996.26
2023-03-21T07:26:16.861Z,996.20
2023-03-21T07:27:16.851Z,996.17
2023-03-21T07:28:16.836Z,996.17
2023-03-21T07:29:16.845Z,996.17
2023-03-21T07:30:16.816Z,996.18
2023-03-21T07:31:16.842Z,996.19
2023-03-21T07:32:16.793Z,996.22
2023-03-21T07:33:16.786Z,996.17
2023-03-21T07:34:16.795Z,996.18
2023-03-21T07:35:16.778Z,996.23
2023-03-21T07:36:16.798Z,996.20
2023-03-21T07:37:16.746Z,996.18
2023-03-21T07:38:16.772Z,996.22
2023-03-21T07:39:16.734Z,996.17
2023-03-21T07:40:16.714Z,996.14
2023-03-21T07:42:16.701Z,996.21
2023-03-21T07:43:16.694Z,996.13
2023-03-21T07:44:16.701Z,996.10
2023-03-21T07:45:18.280Z,996.06
2023-03-21T07:46:16.754Z,996.09
2023-03-21T07:47:16.649Z,996.04
2023-03-21T07:48:16.680Z,995.98
2023-03-21T07:49:16.636Z,996.11
2023-03-21T07:50:16.633Z,996.06
2023-03-21T07:51:16.608Z,996.05
2023-03-21T07:52:16.582Z,996.07
2023-03-21T07:53:16.589Z,996.06
2023-03-21T07:54:16.592Z,996.07
2023-03-21T07:55:16.550Z,996.13
2023-03-21T07:56:16.543Z,996.04
2023-03-21T07:57:16.541Z,996.11
2023-03-21T07:58:16.512Z,996.08
2023-03-21T07:59:16.514Z,996.15
2023-03-21T08:00:16.514Z,996.21
2023-03-21T08:01:16.483Z,996.15
2023-03-21T08:02:16.548Z,996.18
2023-03-21T08:03:16.484Z,996.14
2023-03-21T08:04:16.463Z,996.10
2023-03-21T08:05:16.466Z,996.12
2023-03-21T08:06:16.433Z,996.18
2023-03-21T08:07:16.428Z,996.09
2023-03-21T08:08:16.420Z,996.12
2023-03-21T08:09:16.405Z,996.21
2023-03-21T08:10:16.436Z,996.16
2023-03-21T08:11:16.386Z,996.17
2023-03-21T08:12:16.367Z,996.19
2023-03-21T08:13:16.388Z,996.19
2023-03-21T08:14:16.345Z,996.20
2023-03-21T08:15:16.356Z,996.12
2023-03-21T08:16:16.374Z,996.12
2023-03-21T08:17:16.318Z,996.15
2023-03-21T08:18:16.324Z,996.12
2023-03-21T08:19:16.348Z,996.12
2023-03-21T08:20:16.290Z,996.14
2023-03-21T08:21:16.281Z,996.11
2023-03-21T08:22:16.277Z,996.14
2023-03-21T08:23:16.262Z,996.22
2023-03-21T08:24:16.245Z,996.18
2023-03-21T08:25:16.255Z,996.13
2023-03-21T08:26:16.223Z,996.19
2023-03-21T08:27:16.210Z,996.11
2023-03-21T08:28:16.194Z,996.12
2023-03-21T08:29:16.196Z,996.15
2023-03-21T08:30:16.222Z,996.09
2023-03-21T08:31:16.203Z,996.13
2023-03-21T08:32:16.163Z,996.14
2023-03-21T08:33:16.165Z,996.13
2023-03-21T08:34:16.135Z,996.15
2023-03-21T08:35:16.218Z,996.14
2023-03-21T08:36:16.158Z,996.14
2023-03-21T08:37:16.114Z,996.19
2023-03-21T08:38:16.096Z,996.17
2023-03-21T08:39:16.100Z,996.21
2023-03-21T08:40:16.121Z,996.16
2023-03-21T08:41:16.070Z,996.10
2023-03-21T08:42:16.058Z,996.15
2023-03-21T08:43:16.058Z,996.14
2023-03-21T08:44:16.044Z,996.11
2023-03-21T08:45:16.058Z,996.12
2023-03-21T08:46:16.070Z,996.11
2023-03-21T08:47:16.009Z,996.17
2023-03-21T08:48:16.084Z,996.07
2023-03-21T08:49:15.989Z,996.18
2023-03-21T08:50:16.028Z,996.12
2023-03-21T08:51:15.971Z,996.11
2023-03-21T08:52:15.944Z,996.18
2023-03-21T08:53:15.939Z,996.16
2023-03-21T08:54:15.924Z,996.21
2023-03-21T08:55:15.938Z,996.17
2023-03-21T08:56:15.918Z,996.20
2023-03-21T08:57:15.899Z,996.14
2023-03-21T08:58:15.886Z,996.17
2023-03-21T08:59:15.885Z,996.11
2023-03-21T09:00:15.875Z,996.09
2023-03-21T09:01:16.024Z,996.10
2023-03-21T09:02:15.835Z,996.13
2023-03-21T09:03:15.836Z,996.13
2023-03-21T09:04:15.855Z,996.09
2023-03-21T09:05:15.860Z,996.14
2023-03-21T09:06:15.819Z,996.10
2023-03-21T09:07:15.794Z,996.15
2023-03-21T09:08:15.777Z,996.14
2023-03-21T09:09:15.779Z,996.17
2023-03-21T09:10:20.604Z,996.16
2023-03-21T09:11:16.759Z,996.14
2023-03-21T09:12:15.742Z,996.12
2023-03-21T09:13:15.729Z,996.15
2023-03-21T09:14:15.720Z,996.14
2023-03-21T09:15:15.732Z,996.20
2023-03-21T09:16:15.738Z,996.16
2023-03-21T09:17:15.751Z,996.15
2023-03-21T09:18:15.670Z,996.20
2023-03-21T09:19:15.684Z,996.21
2023-03-21T09:20:15.686Z,996.17
2023-03-21T09:21:15.653Z,996.18
2023-03-21T09:22:15.634Z,996.17
2023-03-21T09:23:15.641Z,996.10
2023-03-21T09:24:15.606Z,996.10
2023-03-21T09:25:15.622Z,996.09
2023-03-21T09:26:15.593Z,996.14
2023-03-21T09:27:15.587Z,996.09
2023-03-21T09:28:15.566Z,996.14
2023-03-21T09:29:15.563Z,996.06
2023-03-21T09:30:15.556Z,996.12
2023-03-21T09:31:15.588Z,996.17
2023-03-21T09:32:15.537Z,996.15
2023-03-21T09:33:15.517Z,996.10
2023-03-21T09:34:15.516Z,996.20
2023-03-21T09:35:15.507Z,996.07
2023-03-21T09:36:15.542Z,996.16
2023-03-21T09:37:15.476Z,996.11
2023-03-21T09:38:15.457Z,996.09
2023-03-21T09:39:15.448Z,996.08
2023-03-21T09:40:15.458Z,996.07
2023-03-21T09:41:15.429Z,996.06
2023-03-21T09:42:15.939Z,996.08
2023-03-21T09:43:15.420Z,996.04
2023-03-21T09:44:15.402Z,996.04
2023-03-21T09:45:15.401Z,995.97
2023-03-21T09:46:15.424Z,995.94
2023-03-21T09:47:15.372Z,995.92
2023-03-21T09:48:15.538Z,995.98
2023-03-21T09:49:15.348Z,995.93
2023-03-21T09:50:15.485Z,995.96
2023-03-21T09:51:15.332Z,995.98
2023-03-21T09:52:15.323Z,995.95
2023-03-21T09:53:15.306Z,995.94
2023-03-21T09:54:15.297Z,995.88
2023-03-21T09:55:15.296Z,995.88
2023-03-21T09:56:15.273Z,995.92
2023-03-21T09:57:15.268Z,995.95
2023-03-21T09:58:15.248Z,995.89
2023-03-21T09:59:15.294Z,995.91
2023-03-21T10:00:15.244Z,995.89
2023-03-21T10:01:15.326Z,995.98
2023-03-21T10:02:15.205Z,995.91
2023-03-21T10:03:15.196Z,995.91
2023-03-21T10:04:15.223Z,995.97
2023-03-21T10:05:15.187Z,995.92
2023-03-21T10:06:15.155Z,995.87
2023-03-21T10:07:15.156Z,995.88
2023-03-21T10:08:15.139Z,995.87
2023-03-21T10:09:15.131Z,995.88
2023-03-21T10:10:15.134Z,995.88
2023-03-21T10:11:15.117Z,995.85
2023-03-21T10:12:15.102Z,995.88
2023-03-21T10:13:15.271Z,995.86
2023-03-21T10:14:15.077Z,995.88
2023-03-21T10:15:15.078Z,995.85
2023-03-21T10:16:15.109Z,995.83
2023-03-21T10:17:15.051Z,995.82
2023-03-21T10:18:15.034Z,995.84
2023-03-21T10:19:15.026Z,995.86
2023-03-21T10:20:15.041Z,995.82
2023-03-21T10:21:20.757Z,995.87
2023-03-21T10:22:15.999Z,995.82
2023-03-21T10:23:14.992Z,995.79
2023-03-21T10:24:14.977Z,995.79
2023-03-21T10:25:14.972Z,995.77
2023-03-21T10:26:17.005Z,995.76
2023-03-21T10:27:14.934Z,995.78
2023-03-21T10:28:14.942Z,995.82
2023-03-21T10:29:14.957Z,995.75
2023-03-21T10:30:14.922Z,995.82
2023-03-21T10:31:14.959Z,995.77
2023-03-21T10:32:14.899Z,995.77
2023-03-21T10:33:14.915Z,995.78
2023-03-21T10:34:14.873Z,995.68
2023-03-21T10:35:15.596Z,995.68
2023-03-21T10:36:14.869Z,995.69
2023-03-21T10:37:14.840Z,995.72
2023-03-21T10:38:14.856Z,995.68
2023-03-21T10:39:14.816Z,995.68
2023-03-21T10:40:14.816Z,995.67
2023-03-21T10:41:14.812Z,995.63
2023-03-21T10:42:14.787Z,995.67
2023-03-21T10:43:14.766Z,995.67
2023-03-21T10:44:14.805Z,995.65
2023-03-21T10:45:14.747Z,995.62
2023-03-21T10:46:14.951Z,995.63
2023-03-21T10:47:14.970Z,995.64
2023-03-21T10:48:14.835Z,995.59
2023-03-21T10:49:14.714Z,995.61
2023-03-21T10:50:14.752Z,995.59
2023-03-21T10:51:14.702Z,995.62
2023-03-21T10:52:14.678Z,995.66
2023-03-21T10:53:14.660Z,995.63
2023-03-21T10:54:14.671Z,995.63
2023-03-21T10:55:14.640Z,995.64
2023-03-21T10:56:14.654Z,995.59
2023-03-21T10:57:14.632Z,995.60
2023-03-21T10:58:14.618Z,995.59
2023-03-21T10:59:14.602Z,995.60
2023-03-21T11:00:14.595Z,995.62
2023-03-21T11:01:14.662Z,995.53
2023-03-21T11:02:14.593Z,995.57
2023-03-21T11:03:14.554Z,995.57
2023-03-21T11:04:14.552Z,995.52
2023-03-21T11:05:14.540Z,995.54
2023-03-21T11:06:14.545Z,995.57
2023-03-21T11:07:14.516Z,995.55
2023-03-21T11:08:14.514Z,995.56
2023-03-21T11:09:14.499Z,995.56
2023-03-21T11:10:17.172Z,995.56
2023-03-21T11:11:15.513Z,995.47
2023-03-21T11:12:14.469Z,995.46
2023-03-21T11:13:14.451Z,995.51
2023-03-21T11:14:14.450Z,995.44
2023-03-21T11:15:14.444Z,995.49
2023-03-21T11:16:14.472Z,995.53
2023-03-21T11:17:14.424Z,995.48
2023-03-21T11:18:14.413Z,995.47
2023-03-21T11:19:14.405Z,995.41
2023-03-21T11:20:14.387Z,995.53
2023-03-21T11:21:14.386Z,995.49
2023-03-21T11:22:14.383Z,995.41
2023-03-21T11:23:14.357Z,995.47
2023-03-21T11:24:14.363Z,995.46
2023-03-21T11:25:14.328Z,995.48
2023-03-21T11:26:14.338Z,995.51
2023-03-21T11:27:14.308Z,995.51
2023-03-21T11:28:14.364Z,995.46
2023-03-21T11:29:14.289Z,995.51
2023-03-21T11:30:14.279Z,995.48
2023-03-21T11:31:14.313Z,995.52
2023-03-21T11:32:14.262Z,995.53
2023-03-21T11:33:14.264Z,995.52
2023-03-21T11:34:14.254Z,995.50
2023-03-21T11:35:14.276Z,995.42
2023-03-21T11:36:14.305Z,995.46
2023-03-21T11:37:14.218Z,995.49
2023-03-21T11:38:14.232Z,995.48
2023-03-21T11:39:14.205Z,995.45
2023-03-21T11:40:14.177Z,995.49
2023-03-21T11:41:14.197Z,995.53
2023-03-21T11:42:14.201Z,995.47
2023-03-21T11:43:14.197Z,995.49
2023-03-21T11:44:14.138Z,995.47
2023-03-21T11:45:14.121Z,995.53
2023-03-21T11:46:14.215Z,995.50
2023-03-21T11:47:14.108Z,995.62
2023-03-21T11:48:14.230Z,995.49
2023-03-21T11:49:14.081Z,995.51
2023-03-21T11:50:14.086Z,995.51
2023-03-21T11:51:14.067Z,995.50
2023-03-21T11:52:14.053Z,995.50
2023-03-21T11:53:14.043Z,995.53
2023-03-21T11:54:14.023Z,995.56
2023-03-21T11:55:14.011Z,995.50
2023-03-21T11:56:14.010Z,995.51
2023-03-21T11:57:13.991Z,995.49
2023-03-21T11:58:14.999Z,995.48
2023-03-21T11:59:14.010Z,995.48
2023-03-21T12:00:13.959Z,995.45
2023-03-21T12:01:13.962Z,995.45
2023-03-21T12:02:13.980Z,995.40
2023-03-21T12:03:13.923Z,995.43
2023-03-21T12:04:13.952Z,995.49
2023-03-21T12:05:13.909Z,995.44
2023-03-21T12:06:13.914Z,995.48
2023-03-21T12:07:13.886Z,995.50
2023-03-21T12:08:13.881Z,995.40
2023-03-21T12:09:13.862Z,995.39
2023-03-21T12:10:13.864Z,995.43
2023-03-21T12:11:13.866Z,995.38
2023-03-21T12:12:13.850Z,995.38
2023-03-21T12:13:13.824Z,995.36
2023-03-21T12:14:13.817Z,995.38
2023-03-21T12:15:13.797Z,995.34
2023-03-21T12:16:13.887Z,995.39
2023-03-21T12:17:13.773Z,995.32
2023-03-21T12:18:13.780Z,995.28
2023-03-21T12:19:13.772Z,995.31
2023-03-21T12:20:13.818Z,995.30
2023-03-21T12:21:13.747Z,995.36
2023-03-21T12:22:13.730Z,995.31
2023-03-21T12:23:13.742Z,995.33
2023-03-21T12:24:13.708Z,995.29
2023-03-21T12:25:13.691Z,995.25
2023-03-21T12:26:13.714Z,995.30
2023-03-21T12:27:13.678Z,995.29
2023-03-21T12:28:15.219Z,995.31
2023-03-21T12:29:13.663Z,995.27
2023-03-21T12:30:13.710Z,995.21